sensor_id;sensor_type;location;lat;lon;timestamp;P1;durP1;ratioP1;P2;durP2;ratioP2
61003;SDS011;46889;37.310;13.582;2023-05-28T00:03:11;10.93;;;6.50;;
61003;SDS011;46889;37.310;13.582;2023-05-28T00:08:03;13.57;;;6.50;;
61003;SDS011;46889;37.310;13.582;2023-05-28T00:10:30;12.98;;;6.18;;
61003;SDS011;46889;37.310;13.582;2023-05-28T00:12:56;12.70;;;6.35;;
61003;SDS011;46889;37.310;13.582;2023-05-28T00:15:22;9.70;;;6.70;;
61003;SDS011;46889;37.310;13.582;2023-05-28T00:17:48;14.35;;;6.50;;
61003;SDS011;46889;37.310;13.582;2023-05-28T00:20:18;15.05;;;6.82;;
61003;SDS011;46889;37.310;13.582;2023-05-28T00:22:44;10.27;;;6.13;;
61003;SDS011;46889;37.310;13.582;2023-05-28T00:25:11;12.80;;;7.20;;
61003;SDS011;46889;37.310;13.582;2023-05-28T00:27:38;12.63;;;6.70;;
61003;SDS011;46889;37.310;13.582;2023-05-28T00:30:04;11.60;;;6.35;;
61003;SDS011;46889;37.310;13.582;2023-05-28T00:32:31;9.32;;;6.55;;
61003;SDS011;46889;37.310;13.582;2023-05-28T00:34:57;12.93;;;6.35;;
61003;SDS011;46889;37.310;13.582;2023-05-28T00:37:23;11.75;;;6.30;;
61003;SDS011;46889;37.310;13.582;2023-05-28T00:39:49;11.68;;;5.85;;
61003;SDS011;46889;37.310;13.582;2023-05-28T00:42:15;11.48;;;6.00;;
61003;SDS011;46889;37.310;13.582;2023-05-28T00:44:42;10.63;;;5.90;;
61003;SDS011;46889;37.310;13.582;2023-05-28T00:47:09;13.02;;;6.10;;
61003;SDS011;46889;37.310;13.582;2023-05-28T00:49:35;9.25;;;5.90;;
61003;SDS011;46889;37.310;13.582;2023-05-28T00:52:02;10.27;;;6.20;;
61003;SDS011;46889;37.310;13.582;2023-05-28T00:54:29;10.88;;;5.78;;
61003;SDS011;46889;37.310;13.582;2023-05-28T00:56:56;10.43;;;6.03;;
61003;SDS011;46889;37.310;13.582;2023-05-28T00:59:26;12.55;;;5.97;;
61003;SDS011;46889;37.310;13.582;2023-05-28T01:01:53;11.27;;;5.95;;
61003;SDS011;46889;37.310;13.582;2023-05-28T01:06:47;12.05;;;6.10;;
61003;SDS011;46889;37.310;13.582;2023-05-28T01:11:40;8.10;;;5.55;;
61003;SDS011;46889;37.310;13.582;2023-05-28T01:14:09;13.40;;;5.82;;
61003;SDS011;46889;37.310;13.582;2023-05-28T01:16:36;10.25;;;6.10;;
61003;SDS011;46889;37.310;13.582;2023-05-28T01:19:03;10.32;;;5.60;;
61003;SDS011;46889;37.310;13.582;2023-05-28T01:21:34;10.45;;;5.80;;
61003;SDS011;46889;37.310;13.582;2023-05-28T01:24:00;9.98;;;5.53;;
61003;SDS011;46889;37.310;13.582;2023-05-28T01:26:27;9.85;;;5.65;;
61003;SDS011;46889;37.310;13.582;2023-05-28T01:28:55;11.07;;;5.70;;
61003;SDS011;46889;37.310;13.582;2023-05-28T01:31:21;9.13;;;5.53;;
61003;SDS011;46889;37.310;13.582;2023-05-28T01:33:47;10.10;;;5.50;;
61003;SDS011;46889;37.310;13.582;2023-05-28T01:36:25;11.98;;;5.53;;
61003;SDS011;46889;37.310;13.582;2023-05-28T01:38:54;11.45;;;5.70;;
61003;SDS011;46889;37.310;13.582;2023-05-28T01:41:24;11.43;;;5.93;;
61003;SDS011;46889;37.310;13.582;2023-05-28T01:43:51;13.27;;;5.57;;
61003;SDS011;46889;37.310;13.582;2023-05-28T01:48:45;13.45;;;5.18;;
61003;SDS011;46889;37.310;13.582;2023-05-28T01:51:15;10.70;;;5.28;;
61003;SDS011;46889;37.310;13.582;2023-05-28T01:53:42;11.25;;;5.38;;
61003;SDS011;46889;37.310;13.582;2023-05-28T01:56:08;9.45;;;5.97;;
61003;SDS011;46889;37.310;13.582;2023-05-28T01:58:34;10.88;;;5.68;;
61003;SDS011;46889;37.310;13.582;2023-05-28T02:03:55;10.43;;;5.28;;
61003;SDS011;46889;37.310;13.582;2023-05-28T02:06:23;9.48;;;5.63;;
61003;SDS011;46889;37.310;13.582;2023-05-28T02:08:50;12.25;;;5.60;;
61003;SDS011;46889;37.310;13.582;2023-05-28T02:11:16;10.25;;;5.65;;
61003;SDS011;46889;37.310;13.582;2023-05-28T02:13:42;10.35;;;5.80;;
61003;SDS011;46889;37.310;13.582;2023-05-28T02:16:09;13.63;;;5.75;;
61003;SDS011;46889;37.310;13.582;2023-05-28T02:18:43;12.23;;;6.00;;
61003;SDS011;46889;37.310;13.582;2023-05-28T02:21:10;11.98;;;5.97;;
61003;SDS011;46889;37.310;13.582;2023-05-28T02:23:42;11.88;;;5.78;;
61003;SDS011;46889;37.310;13.582;2023-05-28T02:26:10;12.50;;;6.05;;
61003;SDS011;46889;37.310;13.582;2023-05-28T02:28:36;11.25;;;5.85;;
61003;SDS011;46889;37.310;13.582;2023-05-28T02:31:03;13.52;;;5.97;;
61003;SDS011;46889;37.310;13.582;2023-05-28T02:33:29;10.93;;;6.25;;
61003;SDS011;46889;37.310;13.582;2023-05-28T02:35:57;11.02;;;5.85;;
61003;SDS011;46889;37.310;13.582;2023-05-28T02:38:23;12.07;;;6.13;;
61003;SDS011;46889;37.310;13.582;2023-05-28T02:40:49;13.40;;;6.30;;
61003;SDS011;46889;37.310;13.582;2023-05-28T02:43:15;12.85;;;6.20;;
61003;SDS011;46889;37.310;13.582;2023-05-28T02:45:41;11.10;;;6.13;;
61003;SDS011;46889;37.310;13.582;2023-05-28T02:48:07;11.00;;;6.30;;
61003;SDS011;46889;37.310;13.582;2023-05-28T02:50:34;11.20;;;5.90;;
61003;SDS011;46889;37.310;13.582;2023-05-28T02:53:01;11.18;;;6.15;;
61003;SDS011;46889;37.310;13.582;2023-05-28T02:55:28;14.60;;;6.20;;
61003;SDS011;46889;37.310;13.582;2023-05-28T02:57:54;10.27;;;5.68;;
61003;SDS011;46889;37.310;13.582;2023-05-28T03:00:20;12.48;;;5.57;;
61003;SDS011;46889;37.310;13.582;2023-05-28T03:02:47;9.65;;;5.20;;
61003;SDS011;46889;37.310;13.582;2023-05-28T03:05:13;12.13;;;5.78;;
61003;SDS011;46889;37.310;13.582;2023-05-28T03:10:05;15.38;;;5.32;;
61003;SDS011;46889;37.310;13.582;2023-05-28T03:12:32;11.05;;;5.20;;
61003;SDS011;46889;37.310;13.582;2023-05-28T03:14:58;11.10;;;5.65;;
61003;SDS011;46889;37.310;13.582;2023-05-28T03:17:24;10.18;;;5.70;;
61003;SDS011;46889;37.310;13.582;2023-05-28T03:19:50;9.43;;;5.55;;
61003;SDS011;46889;37.310;13.582;2023-05-28T03:22:16;12.73;;;5.07;;
61003;SDS011;46889;37.310;13.582;2023-05-28T03:24:42;10.07;;;5.50;;
61003;SDS011;46889;37.310;13.582;2023-05-28T03:27:08;8.00;;;4.68;;
61003;SDS011;46889;37.310;13.582;2023-05-28T03:29:34;10.63;;;5.15;;
61003;SDS011;46889;37.310;13.582;2023-05-28T03:32:00;10.63;;;5.20;;
61003;SDS011;46889;37.310;13.582;2023-05-28T03:34:26;12.38;;;5.57;;
61003;SDS011;46889;37.310;13.582;2023-05-28T03:36:52;10.35;;;5.45;;
61003;SDS011;46889;37.310;13.582;2023-05-28T03:39:18;11.73;;;5.32;;
61003;SDS011;46889;37.310;13.582;2023-05-28T03:41:44;11.20;;;5.68;;
61003;SDS011;46889;37.310;13.582;2023-05-28T03:44:10;8.63;;;5.20;;
61003;SDS011;46889;37.310;13.582;2023-05-28T03:46:37;9.20;;;5.32;;
61003;SDS011;46889;37.310;13.582;2023-05-28T03:49:04;8.32;;;5.25;;
61003;SDS011;46889;37.310;13.582;2023-05-28T03:51:30;8.32;;;5.43;;
61003;SDS011;46889;37.310;13.582;2023-05-28T03:53:57;12.98;;;5.97;;
61003;SDS011;46889;37.310;13.582;2023-05-28T03:56:23;12.38;;;5.93;;
61003;SDS011;46889;37.310;13.582;2023-05-28T03:58:49;11.18;;;5.70;;
61003;SDS011;46889;37.310;13.582;2023-05-28T04:01:15;11.38;;;6.10;;
61003;SDS011;46889;37.310;13.582;2023-05-28T04:03:41;16.13;;;6.18;;
61003;SDS011;46889;37.310;13.582;2023-05-28T04:06:07;13.68;;;5.43;;
61003;SDS011;46889;37.310;13.582;2023-05-28T04:08:33;11.20;;;5.95;;
61003;SDS011;46889;37.310;13.582;2023-05-28T04:10:59;14.40;;;5.82;;
61003;SDS011;46889;37.310;13.582;2023-05-28T04:13:26;13.68;;;5.93;;
61003;SDS011;46889;37.310;13.582;2023-05-28T04:15:52;12.10;;;6.63;;
61003;SDS011;46889;37.310;13.582;2023-05-28T04:18:18;15.45;;;5.82;;
61003;SDS011;46889;37.310;13.582;2023-05-28T04:20:44;10.57;;;5.75;;
61003;SDS011;46889;37.310;13.582;2023-05-28T04:23:10;11.25;;;5.70;;
61003;SDS011;46889;37.310;13.582;2023-05-28T04:25:36;9.40;;;5.53;;
61003;SDS011;46889;37.310;13.582;2023-05-28T04:28:03;10.80;;;5.38;;
61003;SDS011;46889;37.310;13.582;2023-05-28T04:30:29;9.43;;;5.38;;
61003;SDS011;46889;37.310;13.582;2023-05-28T04:32:55;13.40;;;5.45;;
61003;SDS011;46889;37.310;13.582;2023-05-28T04:35:22;12.32;;;5.50;;
61003;SDS011;46889;37.310;13.582;2023-05-28T04:37:48;8.15;;;4.95;;
61003;SDS011;46889;37.310;13.582;2023-05-28T04:40:18;8.15;;;4.90;;
61003;SDS011;46889;37.310;13.582;2023-05-28T04:42:44;13.07;;;5.20;;
61003;SDS011;46889;37.310;13.582;2023-05-28T04:45:10;11.77;;;6.13;;
61003;SDS011;46889;37.310;13.582;2023-05-28T04:47:36;12.77;;;5.82;;
61003;SDS011;46889;37.310;13.582;2023-05-28T04:50:03;11.93;;;6.78;;
61003;SDS011;46889;37.310;13.582;2023-05-28T04:52:39;10.20;;;6.00;;
61003;SDS011;46889;37.310;13.582;2023-05-28T04:55:05;12.32;;;6.55;;
61003;SDS011;46889;37.310;13.582;2023-05-28T04:57:32;10.98;;;5.10;;
61003;SDS011;46889;37.310;13.582;2023-05-28T05:00:01;12.50;;;5.60;;
61003;SDS011;46889;37.310;13.582;2023-05-28T05:02:28;13.35;;;5.20;;
61003;SDS011;46889;37.310;13.582;2023-05-28T05:04:54;9.30;;;4.85;;
61003;SDS011;46889;37.310;13.582;2023-05-28T05:07:22;12.60;;;4.80;;
61003;SDS011;46889;37.310;13.582;2023-05-28T05:09:48;11.10;;;4.90;;
61003;SDS011;46889;37.310;13.582;2023-05-28T05:12:14;13.68;;;5.38;;
61003;SDS011;46889;37.310;13.582;2023-05-28T05:14:40;10.15;;;5.05;;
61003;SDS011;46889;37.310;13.582;2023-05-28T05:17:06;9.27;;;4.97;;
61003;SDS011;46889;37.310;13.582;2023-05-28T05:19:34;11.95;;;5.30;;
61003;SDS011;46889;37.310;13.582;2023-05-28T05:22:00;13.18;;;5.40;;
61003;SDS011;46889;37.310;13.582;2023-05-28T05:24:26;9.45;;;5.18;;
61003;SDS011;46889;37.310;13.582;2023-05-28T05:26:52;10.85;;;5.10;;
61003;SDS011;46889;37.310;13.582;2023-05-28T05:29:18;13.32;;;5.60;;
61003;SDS011;46889;37.310;13.582;2023-05-28T05:31:44;8.32;;;4.97;;
61003;SDS011;46889;37.310;13.582;2023-05-28T05:34:10;12.23;;;5.28;;
61003;SDS011;46889;37.310;13.582;2023-05-28T05:36:36;11.43;;;4.88;;
61003;SDS011;46889;37.310;13.582;2023-05-28T05:39:03;7.85;;;4.38;;
61003;SDS011;46889;37.310;13.582;2023-05-28T05:41:29;12.80;;;4.70;;
61003;SDS011;46889;37.310;13.582;2023-05-28T05:43:55;8.32;;;4.40;;
61003;SDS011;46889;37.310;13.582;2023-05-28T05:46:21;10.63;;;4.35;;
61003;SDS011;46889;37.310;13.582;2023-05-28T05:48:47;7.97;;;3.97;;
61003;SDS011;46889;37.310;13.582;2023-05-28T05:51:13;8.32;;;4.00;;
61003;SDS011;46889;37.310;13.582;2023-05-28T05:53:43;10.60;;;4.20;;
61003;SDS011;46889;37.310;13.582;2023-05-28T05:56:10;10.02;;;4.15;;
61003;SDS011;46889;37.310;13.582;2023-05-28T06:01:03;6.57;;;3.47;;
61003;SDS011;46889;37.310;13.582;2023-05-28T06:03:30;7.35;;;3.67;;
61003;SDS011;46889;37.310;13.582;2023-05-28T06:05:56;7.05;;;3.33;;
61003;SDS011;46889;37.310;13.582;2023-05-28T06:10:48;5.22;;;3.30;;
61003;SDS011;46889;37.310;13.582;2023-05-28T06:13:14;5.57;;;2.90;;
61003;SDS011;46889;37.310;13.582;2023-05-28T06:18:06;7.78;;;3.10;;
61003;SDS011;46889;37.310;13.582;2023-05-28T06:20:32;5.93;;;2.90;;
61003;SDS011;46889;37.310;13.582;2023-05-28T06:25:24;4.97;;;2.55;;
61003;SDS011;46889;37.310;13.582;2023-05-28T06:27:52;7.55;;;2.58;;
61003;SDS011;46889;37.310;13.582;2023-05-28T06:30:18;9.18;;;2.70;;
61003;SDS011;46889;37.310;13.582;2023-05-28T06:32:44;5.65;;;2.85;;
61003;SDS011;46889;37.310;13.582;2023-05-28T06:35:11;6.82;;;2.35;;
61003;SDS011;46889;37.310;13.582;2023-05-28T06:37:37;5.68;;;2.50;;
61003;SDS011;46889;37.310;13.582;2023-05-28T06:40:03;6.30;;;2.90;;
61003;SDS011;46889;37.310;13.582;2023-05-28T06:42:31;7.32;;;2.60;;
61003;SDS011;46889;37.310;13.582;2023-05-28T06:44:58;5.10;;;2.15;;
61003;SDS011;46889;37.310;13.582;2023-05-28T06:47:24;6.38;;;2.45;;
61003;SDS011;46889;37.310;13.582;2023-05-28T06:49:51;4.95;;;2.40;;
61003;SDS011;46889;37.310;13.582;2023-05-28T06:52:17;6.40;;;2.50;;
61003;SDS011;46889;37.310;13.582;2023-05-28T06:54:44;9.88;;;2.55;;
61003;SDS011;46889;37.310;13.582;2023-05-28T06:57:11;6.05;;;2.30;;
61003;SDS011;46889;37.310;13.582;2023-05-28T06:59:37;5.03;;;2.00;;
61003;SDS011;46889;37.310;13.582;2023-05-28T07:02:03;6.78;;;2.80;;
61003;SDS011;46889;37.310;13.582;2023-05-28T07:04:30;4.53;;;2.15;;
61003;SDS011;46889;37.310;13.582;2023-05-28T07:06:56;4.53;;;2.40;;
61003;SDS011;46889;37.310;13.582;2023-05-28T07:09:22;4.88;;;2.22;;
61003;SDS011;46889;37.310;13.582;2023-05-28T07:11:48;4.65;;;2.60;;
61003;SDS011;46889;37.310;13.582;2023-05-28T07:14:14;4.85;;;2.10;;
61003;SDS011;46889;37.310;13.582;2023-05-28T07:16:40;4.20;;;2.20;;
61003;SDS011;46889;37.310;13.582;2023-05-28T07:19:07;4.80;;;2.30;;
61003;SDS011;46889;37.310;13.582;2023-05-28T07:24:00;5.47;;;2.50;;
61003;SDS011;46889;37.310;13.582;2023-05-28T07:26:26;7.43;;;2.55;;
61003;SDS011;46889;37.310;13.582;2023-05-28T07:31:17;5.70;;;2.55;;
61003;SDS011;46889;37.310;13.582;2023-05-28T07:33:43;3.70;;;2.60;;
61003;SDS011;46889;37.310;13.582;2023-05-28T07:36:10;6.20;;;2.92;;
61003;SDS011;46889;37.310;13.582;2023-05-28T07:38:36;7.38;;;3.05;;
61003;SDS011;46889;37.310;13.582;2023-05-28T07:41:03;6.30;;;2.83;;
61003;SDS011;46889;37.310;13.582;2023-05-28T07:43:29;7.63;;;2.63;;
61003;SDS011;46889;37.310;13.582;2023-05-28T07:45:55;6.05;;;2.90;;
61003;SDS011;46889;37.310;13.582;2023-05-28T07:48:21;7.65;;;3.53;;
61003;SDS011;46889;37.310;13.582;2023-05-28T07:50:47;13.07;;;3.83;;
61003;SDS011;46889;37.310;13.582;2023-05-28T07:53:14;9.82;;;4.07;;
61003;SDS011;46889;37.310;13.582;2023-05-28T07:55:42;11.65;;;4.28;;
61003;SDS011;46889;37.310;13.582;2023-05-28T07:58:08;9.55;;;4.47;;
61003;SDS011;46889;37.310;13.582;2023-05-28T08:00:37;14.15;;;4.32;;
61003;SDS011;46889;37.310;13.582;2023-05-28T08:03:03;10.10;;;4.25;;
61003;SDS011;46889;37.310;13.582;2023-05-28T08:07:55;12.40;;;5.07;;
61003;SDS011;46889;37.310;13.582;2023-05-28T08:10:21;10.52;;;3.88;;
61003;SDS011;46889;37.310;13.582;2023-05-28T08:12:48;13.23;;;4.35;;
61003;SDS011;46889;37.310;13.582;2023-05-28T08:15:14;8.95;;;4.60;;
61003;SDS011;46889;37.310;13.582;2023-05-28T08:22:33;8.73;;;3.83;;
61003;SDS011;46889;37.310;13.582;2023-05-28T08:24:59;12.65;;;4.10;;
61003;SDS011;46889;37.310;13.582;2023-05-28T08:29:51;12.23;;;4.45;;
61003;SDS011;46889;37.310;13.582;2023-05-28T08:32:17;11.70;;;4.32;;
61003;SDS011;46889;37.310;13.582;2023-05-28T08:34:43;8.57;;;4.18;;
61003;SDS011;46889;37.310;13.582;2023-05-28T08:37:09;8.40;;;3.72;;
61003;SDS011;46889;37.310;13.582;2023-05-28T08:39:36;11.40;;;4.03;;
61003;SDS011;46889;37.310;13.582;2023-05-28T08:42:02;9.70;;;3.85;;
61003;SDS011;46889;37.310;13.582;2023-05-28T08:44:29;7.13;;;3.80;;
61003;SDS011;46889;37.310;13.582;2023-05-28T08:46:55;6.95;;;4.15;;
61003;SDS011;46889;37.310;13.582;2023-05-28T08:49:22;12.30;;;3.85;;
61003;SDS011;46889;37.310;13.582;2023-05-28T08:51:59;10.13;;;4.47;;
61003;SDS011;46889;37.310;13.582;2023-05-28T08:54:29;12.05;;;3.78;;
61003;SDS011;46889;37.310;13.582;2023-05-28T08:56:56;9.63;;;3.83;;
61003;SDS011;46889;37.310;13.582;2023-05-28T08:59:22;9.15;;;3.65;;
61003;SDS011;46889;37.310;13.582;2023-05-28T09:01:51;6.38;;;3.75;;
61003;SDS011;46889;37.310;13.582;2023-05-28T09:04:17;7.97;;;3.90;;
61003;SDS011;46889;37.310;13.582;2023-05-28T09:06:43;8.80;;;3.85;;
61003;SDS011;46889;37.310;13.582;2023-05-28T09:09:09;6.38;;;3.50;;
61003;SDS011;46889;37.310;13.582;2023-05-28T09:11:37;8.93;;;3.47;;
61003;SDS011;46889;37.310;13.582;2023-05-28T09:14:09;4.43;;;2.97;;
61003;SDS011;46889;37.310;13.582;2023-05-28T09:16:41;7.53;;;3.20;;
61003;SDS011;46889;37.310;13.582;2023-05-28T09:19:08;8.30;;;3.30;;
61003;SDS011;46889;37.310;13.582;2023-05-28T09:21:35;9.32;;;3.67;;
61003;SDS011;46889;37.310;13.582;2023-05-28T09:24:04;7.93;;;3.90;;
61003;SDS011;46889;37.310;13.582;2023-05-28T09:26:30;6.63;;;3.28;;
61003;SDS011;46889;37.310;13.582;2023-05-28T09:28:57;7.90;;;3.00;;
61003;SDS011;46889;37.310;13.582;2023-05-28T09:31:30;12.60;;;4.35;;
61003;SDS011;46889;37.310;13.582;2023-05-28T09:33:59;12.35;;;3.78;;
61003;SDS011;46889;37.310;13.582;2023-05-28T09:36:28;10.52;;;4.30;;
61003;SDS011;46889;37.310;13.582;2023-05-28T09:38:57;9.35;;;4.13;;
61003;SDS011;46889;37.310;13.582;2023-05-28T09:41:24;10.60;;;4.30;;
61003;SDS011;46889;37.310;13.582;2023-05-28T09:43:59;13.00;;;4.67;;
61003;SDS011;46889;37.310;13.582;2023-05-28T09:46:30;10.73;;;4.03;;
61003;SDS011;46889;37.310;13.582;2023-05-28T09:48:57;9.45;;;4.20;;
61003;SDS011;46889;37.310;13.582;2023-05-28T09:51:25;10.50;;;4.30;;
61003;SDS011;46889;37.310;13.582;2023-05-28T09:54:02;12.80;;;5.10;;
61003;SDS011;46889;37.310;13.582;2023-05-28T09:56:33;16.30;;;4.55;;
61003;SDS011;46889;37.310;13.582;2023-05-28T09:59:03;9.30;;;4.18;;
61003;SDS011;46889;37.310;13.582;2023-05-28T10:01:39;8.27;;;4.30;;
61003;SDS011;46889;37.310;13.582;2023-05-28T10:04:12;10.30;;;4.63;;
61003;SDS011;46889;37.310;13.582;2023-05-28T10:06:43;11.45;;;4.40;;
61003;SDS011;46889;37.310;13.582;2023-05-28T10:09:14;12.43;;;4.72;;
61003;SDS011;46889;37.310;13.582;2023-05-28T10:11:50;8.98;;;4.57;;
61003;SDS011;46889;37.310;13.582;2023-05-28T10:14:38;8.75;;;4.03;;
61003;SDS011;46889;37.310;13.582;2023-05-28T10:17:05;11.88;;;4.50;;
61003;SDS011;46889;37.310;13.582;2023-05-28T10:19:34;10.40;;;4.25;;
61003;SDS011;46889;37.310;13.582;2023-05-28T10:22:01;10.20;;;4.22;;
61003;SDS011;46889;37.310;13.582;2023-05-28T10:26:54;6.90;;;3.92;;
61003;SDS011;46889;37.310;13.582;2023-05-28T10:29:20;8.30;;;3.90;;
61003;SDS011;46889;37.310;13.582;2023-05-28T10:32:20;9.38;;;4.20;;
61003;SDS011;46889;37.310;13.582;2023-05-28T10:34:42;9.45;;;4.22;;
61003;SDS011;46889;37.310;13.582;2023-05-28T10:37:09;9.27;;;3.88;;
61003;SDS011;46889;37.310;13.582;2023-05-28T10:42:07;10.45;;;4.35;;
61003;SDS011;46889;37.310;13.582;2023-05-28T10:44:52;12.85;;;4.57;;
61003;SDS011;46889;37.310;13.582;2023-05-28T10:47:33;11.82;;;3.95;;
61003;SDS011;46889;37.310;13.582;2023-05-28T10:52:42;11.38;;;3.80;;
61003;SDS011;46889;37.310;13.582;2023-05-28T10:57:41;8.70;;;3.80;;
61003;SDS011;46889;37.310;13.582;2023-05-28T11:00:23;10.57;;;4.90;;
61003;SDS011;46889;37.310;13.582;2023-05-28T11:05:23;12.40;;;4.40;;
61003;SDS011;46889;37.310;13.582;2023-05-28T11:07:50;12.32;;;4.35;;
61003;SDS011;46889;37.310;13.582;2023-05-28T11:10:18;9.18;;;4.10;;
61003;SDS011;46889;37.310;13.582;2023-05-28T11:12:45;7.88;;;4.00;;
61003;SDS011;46889;37.310;13.582;2023-05-28T11:15:12;12.95;;;4.72;;
61003;SDS011;46889;37.310;13.582;2023-05-28T11:17:39;8.68;;;4.32;;
61003;SDS011;46889;37.310;13.582;2023-05-28T11:20:19;11.60;;;4.80;;
61003;SDS011;46889;37.310;13.582;2023-05-28T11:22:46;10.65;;;5.40;;
61003;SDS011;46889;37.310;13.582;2023-05-28T11:25:13;9.63;;;4.90;;
61003;SDS011;46889;37.310;13.582;2023-05-28T11:30:09;10.18;;;4.55;;
61003;SDS011;46889;37.310;13.582;2023-05-28T11:32:37;12.43;;;4.60;;
61003;SDS011;46889;37.310;13.582;2023-05-28T11:35:04;7.30;;;3.72;;
61003;SDS011;46889;37.310;13.582;2023-05-28T11:37:31;8.32;;;4.30;;
61003;SDS011;46889;37.310;13.582;2023-05-28T11:39:59;9.57;;;4.40;;
61003;SDS011;46889;37.310;13.582;2023-05-28T11:42:29;8.25;;;4.15;;
61003;SDS011;46889;37.310;13.582;2023-05-28T11:44:55;8.63;;;4.28;;
61003;SDS011;46889;37.310;13.582;2023-05-28T11:49:48;7.82;;;3.83;;
61003;SDS011;46889;37.310;13.582;2023-05-28T11:52:16;7.68;;;4.03;;
61003;SDS011;46889;37.310;13.582;2023-05-28T11:54:47;7.95;;;4.10;;
61003;SDS011;46889;37.310;13.582;2023-05-28T11:57:22;10.43;;;4.00;;
61003;SDS011;46889;37.310;13.582;2023-05-28T11:59:57;8.77;;;4.07;;
61003;SDS011;46889;37.310;13.582;2023-05-28T12:02:41;11.13;;;4.65;;
61003;SDS011;46889;37.310;13.582;2023-05-28T12:05:08;10.90;;;4.55;;
61003;SDS011;46889;37.310;13.582;2023-05-28T12:07:35;8.05;;;3.70;;
61003;SDS011;46889;37.310;13.582;2023-05-28T12:10:08;6.55;;;3.95;;
61003;SDS011;46889;37.310;13.582;2023-05-28T12:12:42;11.68;;;4.05;;
61003;SDS011;46889;37.310;13.582;2023-05-28T12:15:11;7.45;;;4.07;;
61003;SDS011;46889;37.310;13.582;2023-05-28T12:17:38;10.40;;;4.20;;
61003;SDS011;46889;37.310;13.582;2023-05-28T12:20:50;8.30;;;3.55;;
61003;SDS011;46889;37.310;13.582;2023-05-28T12:28:14;9.40;;;3.85;;
61003;SDS011;46889;37.310;13.582;2023-05-28T12:30:43;10.07;;;3.80;;
61003;SDS011;46889;37.310;13.582;2023-05-28T12:33:10;8.93;;;3.95;;
61003;SDS011;46889;37.310;13.582;2023-05-28T12:35:38;8.15;;;3.78;;
61003;SDS011;46889;37.310;13.582;2023-05-28T12:38:04;8.93;;;3.90;;
61003;SDS011;46889;37.310;13.582;2023-05-28T12:40:30;9.60;;;3.67;;
61003;SDS011;46889;37.310;13.582;2023-05-28T12:42:56;8.68;;;3.80;;
61003;SDS011;46889;37.310;13.582;2023-05-28T12:45:22;6.30;;;3.80;;
61003;SDS011;46889;37.310;13.582;2023-05-28T12:47:48;7.38;;;3.50;;
61003;SDS011;46889;37.310;13.582;2023-05-28T12:50:14;8.90;;;3.83;;
61003;SDS011;46889;37.310;13.582;2023-05-28T12:52:40;8.52;;;4.10;;
61003;SDS011;46889;37.310;13.582;2023-05-28T12:55:06;6.45;;;3.10;;
61003;SDS011;46889;37.310;13.582;2023-05-28T12:57:33;12.07;;;4.43;;
61003;SDS011;46889;37.310;13.582;2023-05-28T12:59:59;8.70;;;3.90;;
61003;SDS011;46889;37.310;13.582;2023-05-28T13:02:25;9.35;;;3.80;;
61003;SDS011;46889;37.310;13.582;2023-05-28T13:04:51;7.25;;;3.97;;
61003;SDS011;46889;37.310;13.582;2023-05-28T13:07:18;6.90;;;3.80;;
61003;SDS011;46889;37.310;13.582;2023-05-28T13:09:44;8.95;;;3.88;;
61003;SDS011;46889;37.310;13.582;2023-05-28T13:12:12;8.10;;;4.03;;
61003;SDS011;46889;37.310;13.582;2023-05-28T13:14:38;10.68;;;4.22;;
61003;SDS011;46889;37.310;13.582;2023-05-28T13:17:04;8.20;;;3.80;;
61003;SDS011;46889;37.310;13.582;2023-05-28T13:19:30;8.27;;;3.92;;
61003;SDS011;46889;37.310;13.582;2023-05-28T13:21:56;7.70;;;3.65;;
61003;SDS011;46889;37.310;13.582;2023-05-28T13:24:25;8.95;;;4.20;;
61003;SDS011;46889;37.310;13.582;2023-05-28T13:26:51;9.40;;;4.13;;
61003;SDS011;46889;37.310;13.582;2023-05-28T13:29:17;9.57;;;4.32;;
61003;SDS011;46889;37.310;13.582;2023-05-28T13:31:43;12.23;;;5.43;;
61003;SDS011;46889;37.310;13.582;2023-05-28T13:34:09;8.32;;;4.15;;
61003;SDS011;46889;37.310;13.582;2023-05-28T13:36:35;8.30;;;3.63;;
61003;SDS011;46889;37.310;13.582;2023-05-28T13:39:01;7.10;;;3.95;;
61003;SDS011;46889;37.310;13.582;2023-05-28T13:41:29;10.48;;;4.65;;
61003;SDS011;46889;37.310;13.582;2023-05-28T13:43:55;6.82;;;4.05;;
61003;SDS011;46889;37.310;13.582;2023-05-28T13:46:22;8.48;;;4.10;;
61003;SDS011;46889;37.310;13.582;2023-05-28T13:48:52;9.73;;;3.85;;
61003;SDS011;46889;37.310;13.582;2023-05-28T13:54:50;11.10;;;4.13;;
61003;SDS011;46889;37.310;13.582;2023-05-28T13:57:59;10.60;;;4.40;;
61003;SDS011;46889;37.310;13.582;2023-05-28T14:00:25;11.50;;;4.53;;
61003;SDS011;46889;37.310;13.582;2023-05-28T14:02:51;9.60;;;4.63;;
61003;SDS011;46889;37.310;13.582;2023-05-28T14:05:17;7.97;;;4.28;;
61003;SDS011;46889;37.310;13.582;2023-05-28T14:07:43;7.57;;;3.97;;
61003;SDS011;46889;37.310;13.582;2023-05-28T14:10:09;7.80;;;3.92;;
61003;SDS011;46889;37.310;13.582;2023-05-28T14:12:36;9.50;;;4.13;;
61003;SDS011;46889;37.310;13.582;2023-05-28T14:15:02;8.32;;;3.83;;
61003;SDS011;46889;37.310;13.582;2023-05-28T14:17:31;11.93;;;4.28;;
61003;SDS011;46889;37.310;13.582;2023-05-28T14:19:57;11.80;;;3.50;;
61003;SDS011;46889;37.310;13.582;2023-05-28T14:22:23;8.07;;;4.10;;
61003;SDS011;46889;37.310;13.582;2023-05-28T14:29:42;9.05;;;3.85;;
61003;SDS011;46889;37.310;13.582;2023-05-28T14:32:08;8.02;;;4.18;;
61003;SDS011;46889;37.310;13.582;2023-05-28T14:39:27;9.63;;;3.53;;
61003;SDS011;46889;37.310;13.582;2023-05-28T14:41:53;6.10;;;3.25;;
61003;SDS011;46889;37.310;13.582;2023-05-28T14:44:19;8.70;;;3.72;;
61003;SDS011;46889;37.310;13.582;2023-05-28T14:46:45;12.10;;;4.05;;
61003;SDS011;46889;37.310;13.582;2023-05-28T14:49:11;7.07;;;4.00;;
61003;SDS011;46889;37.310;13.582;2023-05-28T14:51:37;9.70;;;4.38;;
61003;SDS011;46889;37.310;13.582;2023-05-28T14:54:03;11.73;;;4.57;;
61003;SDS011;46889;37.310;13.582;2023-05-28T14:56:29;9.80;;;4.35;;
61003;SDS011;46889;37.310;13.582;2023-05-28T14:58:55;7.65;;;4.30;;
61003;SDS011;46889;37.310;13.582;2023-05-28T15:01:21;11.57;;;4.15;;
61003;SDS011;46889;37.310;13.582;2023-05-28T15:03:48;10.10;;;4.25;;
61003;SDS011;46889;37.310;13.582;2023-05-28T15:06:14;9.52;;;4.00;;
61003;SDS011;46889;37.310;13.582;2023-05-28T15:08:40;9.63;;;4.15;;
61003;SDS011;46889;37.310;13.582;2023-05-28T15:11:07;10.20;;;4.18;;
61003;SDS011;46889;37.310;13.582;2023-05-28T15:13:36;11.77;;;4.88;;
61003;SDS011;46889;37.310;13.582;2023-05-28T15:16:02;10.02;;;4.55;;
61003;SDS011;46889;37.310;13.582;2023-05-28T15:18:28;16.08;;;5.45;;
61003;SDS011;46889;37.310;13.582;2023-05-28T15:20:54;16.15;;;5.47;;
61003;SDS011;46889;37.310;13.582;2023-05-28T15:23:20;10.52;;;4.43;;
61003;SDS011;46889;37.310;13.582;2023-05-28T15:25:46;15.20;;;4.63;;
61003;SDS011;46889;37.310;13.582;2023-05-28T15:28:13;14.50;;;4.78;;
61003;SDS011;46889;37.310;13.582;2023-05-28T15:30:39;10.55;;;4.38;;
61003;SDS011;46889;37.310;13.582;2023-05-28T15:33:05;14.02;;;4.80;;
61003;SDS011;46889;37.310;13.582;2023-05-28T15:35:33;15.57;;;5.32;;
61003;SDS011;46889;37.310;13.582;2023-05-28T15:40:25;13.77;;;4.97;;
61003;SDS011;46889;37.310;13.582;2023-05-28T15:42:52;10.77;;;4.93;;
61003;SDS011;46889;37.310;13.582;2023-05-28T15:45:22;12.50;;;4.95;;
61003;SDS011;46889;37.310;13.582;2023-05-28T15:50:14;12.98;;;4.97;;
61003;SDS011;46889;37.310;13.582;2023-05-28T15:52:41;11.93;;;4.18;;